Gardner, Colorado
Current Conditions -  °F | °C
As of 5:52 AM on Monday 20 Oct 2014 (Local Time) from KVTP Reporting Station
Overcast Overcast  
Wind Chill: 37°   Ceiling: 8000
Heat Index: 41°   Visibility: 10mi
Dew Point: 28°   Wind: 6mph
Humidity: 61%   Direction: 50°NE
Pressure: 30.4"   Gusts: NA
Location:  37.78°N, 105.17°W
Report Text: KVTP 201152Z AUTO 05005KT 10SM SCT065 OVC080 05/M02 A3040 RMK AO2
Loading
Personal Weather Stations






























Interactive Weather Map
Tropical Storm Tracking
New forecast layout! Learn more

10-Day Weather Forecast

Advertisements
Track Severe Weather on mobile